sensor_id;sensor_type;location;lat;lon;timestamp;pressure;altitude;pressure_sealevel;temperature;humidity
9277;BME280;4676;42.678;23.244;2022-09-14T00:01:39;94020.56;;;13.07;100.00
9277;BME280;4676;42.678;23.244;2022-09-14T00:04:11;94030.13;;;13.02;100.00
9277;BME280;4676;42.678;23.244;2022-09-14T00:06:38;94027.25;;;12.92;100.00
9277;BME280;4676;42.678;23.244;2022-09-14T00:09:06;94025.75;;;12.88;100.00
9277;BME280;4676;42.678;23.244;2022-09-14T00:11:35;94027.34;;;12.91;100.00
9277;BME280;4676;42.678;23.244;2022-09-14T00:14:04;94035.75;;;12.91;100.00
9277;BME280;4676;42.678;23.244;2022-09-14T00:16:35;94039.28;;;12.89;100.00
9277;BME280;4676;42.678;23.244;2022-09-14T00:19:04;94048.94;;;12.82;100.00
9277;BME280;4676;42.678;23.244;2022-09-14T00:21:34;94042.97;;;12.83;100.00
9277;BME280;4676;42.678;23.244;2022-09-14T00:24:01;94034.88;;;12.75;100.00
9277;BME280;4676;42.678;23.244;2022-09-14T00:26:28;94031.88;;;12.67;100.00
9277;BME280;4676;42.678;23.244;2022-09-14T00:28:57;94031.38;;;12.61;100.00
9277;BME280;4676;42.678;23.244;2022-09-14T00:31:24;94026.91;;;12.66;100.00
9277;BME280;4676;42.678;23.244;2022-09-14T00:33:52;94034.44;;;12.67;100.00
9277;BME280;4676;42.678;23.244;2022-09-14T00:36:20;94031.50;;;12.75;100.00
9277;BME280;4676;42.678;23.244;2022-09-14T00:38:49;94034.00;;;12.59;100.00
9277;BME280;4676;42.678;23.244;2022-09-14T00:41:18;94044.28;;;12.56;100.00
9277;BME280;4676;42.678;23.244;2022-09-14T00:43:54;94036.00;;;12.52;100.00
9277;BME280;4676;42.678;23.244;2022-09-14T00:46:21;94034.00;;;12.59;100.00
9277;BME280;4676;42.678;23.244;2022-09-14T00:48:48;94028.59;;;12.48;100.00
9277;BME280;4676;42.678;23.244;2022-09-14T00:51:16;94043.03;;;12.47;100.00
9277;BME280;4676;42.678;23.244;2022-09-14T00:53:44;94045.72;;;12.44;100.00
9277;BME280;4676;42.678;23.244;2022-09-14T00:56:13;94058.88;;;12.52;100.00
9277;BME280;4676;42.678;23.244;2022-09-14T00:58:40;94050.72;;;12.46;100.00
9277;BME280;4676;42.678;23.244;2022-09-14T01:01:08;94051.63;;;12.45;100.00
9277;BME280;4676;42.678;23.244;2022-09-14T01:03:35;94048.09;;;12.30;100.00
9277;BME280;4676;42.678;23.244;2022-09-14T01:06:09;94060.81;;;12.30;100.00
9277;BME280;4676;42.678;23.244;2022-09-14T01:09:01;94051.22;;;12.35;100.00
9277;BME280;4676;42.678;23.244;2022-09-14T01:11:42;94059.00;;;12.32;100.00
9277;BME280;4676;42.678;23.244;2022-09-14T01:14:16;94056.41;;;12.34;100.00
9277;BME280;4676;42.678;23.244;2022-09-14T01:16:51;94050.25;;;12.21;100.00
9277;BME280;4676;42.678;23.244;2022-09-14T01:19:25;94046.75;;;12.23;100.00
9277;BME280;4676;42.678;23.244;2022-09-14T01:22:04;94054.97;;;12.28;100.00
9277;BME280;4676;42.678;23.244;2022-09-14T01:24:41;94048.16;;;12.29;100.00
9277;BME280;4676;42.678;23.244;2022-09-14T01:27:24;94042.34;;;12.27;100.00
9277;BME280;4676;42.678;23.244;2022-09-14T01:29:58;94047.28;;;12.30;100.00
9277;BME280;4676;42.678;23.244;2022-09-14T01:32:30;94043.75;;;12.32;100.00
9277;BME280;4676;42.678;23.244;2022-09-14T01:35:02;94042.34;;;12.27;100.00
9277;BME280;4676;42.678;23.244;2022-09-14T01:37:34;94045.78;;;12.26;100.00
9277;BME280;4676;42.678;23.244;2022-09-14T01:40:07;94049.34;;;12.22;100.00
9277;BME280;4676;42.678;23.244;2022-09-14T01:42:40;93979.97;;;11.85;100.00
9277;BME280;4676;42.678;23.244;2022-09-14T01:45:10;94047.97;;;12.15;100.00
9277;BME280;4676;42.678;23.244;2022-09-14T01:47:41;94047.78;;;12.19;100.00
9277;BME280;4676;42.678;23.244;2022-09-14T01:50:12;94040.66;;;12.09;100.00
9277;BME280;4676;42.678;23.244;2022-09-14T01:52:44;94050.88;;;12.07;100.00
9277;BME280;4676;42.678;23.244;2022-09-14T01:55:15;94055.91;;;12.09;100.00
9277;BME280;4676;42.678;23.244;2022-09-14T01:57:48;94037.94;;;11.94;100.00
9277;BME280;4676;42.678;23.244;2022-09-14T02:00:19;94046.78;;;12.05;100.00
9277;BME280;4676;42.678;23.244;2022-09-14T02:02:49;94044.66;;;11.95;100.00
9277;BME280;4676;42.678;23.244;2022-09-14T02:05:20;94040.69;;;11.90;100.00
9277;BME280;4676;42.678;23.244;2022-09-14T02:07:50;94017.72;;;11.74;100.00
9277;BME280;4676;42.678;23.244;2022-09-14T02:10:17;94041.50;;;11.90;100.00
9277;BME280;4676;42.678;23.244;2022-09-14T02:12:45;94051.59;;;11.92;100.00
9277;BME280;4676;42.678;23.244;2022-09-14T02:15:13;94055.03;;;11.91;100.00
9277;BME280;4676;42.678;23.244;2022-09-14T02:17:41;94047.41;;;11.91;100.00
9277;BME280;4676;42.678;23.244;2022-09-14T02:20:15;94047.06;;;11.98;100.00
9277;BME280;4676;42.678;23.244;2022-09-14T02:22:44;94042.19;;;11.94;100.00
9277;BME280;4676;42.678;23.244;2022-09-14T02:25:11;94034.03;;;11.87;100.00
9277;BME280;4676;42.678;23.244;2022-09-14T02:27:38;94028.06;;;11.88;100.00
9277;BME280;4676;42.678;23.244;2022-09-14T02:30:07;94031.97;;;11.77;100.00
9277;BME280;4676;42.678;23.244;2022-09-14T02:32:39;94022.56;;;11.60;100.00
9277;BME280;4676;42.678;23.244;2022-09-14T02:35:15;94042.09;;;11.58;100.00
9277;BME280;4676;42.678;23.244;2022-09-14T02:37:49;94042.34;;;11.72;100.00
9277;BME280;4676;42.678;23.244;2022-09-14T02:40:25;94048.31;;;11.71;100.00
9277;BME280;4676;42.678;23.244;2022-09-14T02:42:59;94030.22;;;11.59;100.00
9277;BME280;4676;42.678;23.244;2022-09-14T02:45:38;94049.56;;;11.81;100.00
9277;BME280;4676;42.678;23.244;2022-09-14T02:48:12;94053.53;;;11.87;100.00
9277;BME280;4676;42.678;23.244;2022-09-14T02:50:42;94049.94;;;11.72;100.00
9277;BME280;4676;42.678;23.244;2022-09-14T02:53:15;94049.59;;;11.80;100.00
9277;BME280;4676;42.678;23.244;2022-09-14T02:55:47;94045.84;;;11.88;100.00
9277;BME280;4676;42.678;23.244;2022-09-14T02:58:14;94054.16;;;11.73;100.00
9277;BME280;4676;42.678;23.244;2022-09-14T03:00:44;94057.06;;;11.64;100.00
9277;BME280;4676;42.678;23.244;2022-09-14T03:03:12;94043.16;;;11.73;100.00
9277;BME280;4676;42.678;23.244;2022-09-14T03:05:40;94052.25;;;11.78;100.00
9277;BME280;4676;42.678;23.244;2022-09-14T03:08:07;94038.66;;;11.40;100.00
9277;BME280;4676;42.678;23.244;2022-09-14T03:10:36;94052.19;;;11.60;100.00
9277;BME280;4676;42.678;23.244;2022-09-14T03:13:02;94047.31;;;11.55;100.00
9277;BME280;4676;42.678;23.244;2022-09-14T03:15:29;94056.91;;;11.48;100.00
9277;BME280;4676;42.678;23.244;2022-09-14T03:17:58;94054.53;;;11.45;100.00
9277;BME280;4676;42.678;23.244;2022-09-14T03:20:26;94057.75;;;11.49;100.00
9277;BME280;4676;42.678;23.244;2022-09-14T03:22:53;94043.22;;;11.52;100.00
9277;BME280;4676;42.678;23.244;2022-09-14T03:25:20;94047.59;;;11.49;100.00
9277;BME280;4676;42.678;23.244;2022-09-14T03:27:49;94053.63;;;11.46;100.00
9277;BME280;4676;42.678;23.244;2022-09-14T03:30:16;94056.22;;;11.45;100.00
9277;BME280;4676;42.678;23.244;2022-09-14T03:32:43;94043.75;;;11.59;100.00
9277;BME280;4676;42.678;23.244;2022-09-14T03:35:11;94050.28;;;11.46;100.00
9277;BME280;4676;42.678;23.244;2022-09-14T03:37:39;94049.78;;;11.38;100.00
9277;BME280;4676;42.678;23.244;2022-09-14T03:40:08;94050.25;;;11.27;100.00
9277;BME280;4676;42.678;23.244;2022-09-14T03:42:35;94047.78;;;11.26;100.00
9277;BME280;4676;42.678;23.244;2022-09-14T03:45:02;94051.50;;;11.37;100.00
9277;BME280;4676;42.678;23.244;2022-09-14T03:47:29;94050.28;;;11.46;100.00
9277;BME280;4676;42.678;23.244;2022-09-14T03:49:56;94059.78;;;11.41;100.00
9277;BME280;4676;42.678;23.244;2022-09-14T03:52:24;94047.97;;;11.40;100.00
9277;BME280;4676;42.678;23.244;2022-09-14T03:54:51;94047.09;;;11.41;100.00
9277;BME280;4676;42.678;23.244;2022-09-14T03:57:18;94050.06;;;11.32;100.00
9277;BME280;4676;42.678;23.244;2022-09-14T03:59:45;94051.72;;;11.33;100.00
9277;BME280;4676;42.678;23.244;2022-09-14T04:02:11;94052.91;;;11.24;100.00
9277;BME280;4676;42.678;23.244;2022-09-14T04:04:38;94048.66;;;11.43;100.00
9277;BME280;4676;42.678;23.244;2022-09-14T04:07:05;94063.22;;;11.40;100.00
9277;BME280;4676;42.678;23.244;2022-09-14T04:09:33;94057.81;;;11.29;100.00
9277;BME280;4676;42.678;23.244;2022-09-14T04:12:00;94048.91;;;11.39;100.00
9277;BME280;4676;42.678;23.244;2022-09-14T04:14:27;94065.59;;;11.24;100.00
9277;BME280;4676;42.678;23.244;2022-09-14T04:16:53;94057.47;;;11.36;100.00
9277;BME280;4676;42.678;23.244;2022-09-14T04:19:20;94054.34;;;11.30;100.00
9277;BME280;4676;42.678;23.244;2022-09-14T04:21:47;94052.03;;;11.25;100.00
9277;BME280;4676;42.678;23.244;2022-09-14T04:24:13;94056.41;;;11.22;100.00
9277;BME280;4676;42.678;23.244;2022-09-14T04:26:42;94053.94;;;11.20;100.00
9277;BME280;4676;42.678;23.244;2022-09-14T04:29:09;94056.59;;;11.17;100.00
9277;BME280;4676;42.678;23.244;2022-09-14T04:31:36;94058.06;;;11.41;100.00
9277;BME280;4676;42.678;23.244;2022-09-14T04:34:03;94057.25;;;11.41;100.00
9277;BME280;4676;42.678;23.244;2022-09-14T04:36:30;94051.00;;;11.48;100.00
9277;BME280;4676;42.678;23.244;2022-09-14T04:38:58;94058.63;;;11.48;100.00
9277;BME280;4676;42.678;23.244;2022-09-14T04:41:26;94056.09;;;11.48;100.00
9277;BME280;4676;42.678;23.244;2022-09-14T04:43:55;94061.16;;;11.48;100.00
9277;BME280;4676;42.678;23.244;2022-09-14T04:46:25;94052.50;;;11.72;100.00
9277;BME280;4676;42.678;23.244;2022-09-14T04:48:52;94060.22;;;11.69;100.00
9277;BME280;4676;42.678;23.244;2022-09-14T04:51:21;94059.28;;;11.72;100.00
9277;BME280;4676;42.678;23.244;2022-09-14T04:53:49;94067.31;;;11.81;100.00
9277;BME280;4676;42.678;23.244;2022-09-14T04:56:17;94075.69;;;11.83;100.00
9277;BME280;4676;42.678;23.244;2022-09-14T04:58:46;94068.00;;;11.85;100.00
9277;BME280;4676;42.678;23.244;2022-09-14T05:01:18;94075.75;;;12.00;100.00
9277;BME280;4676;42.678;23.244;2022-09-14T05:03:45;94074.22;;;11.96;100.00
9277;BME280;4676;42.678;23.244;2022-09-14T05:06:14;94073.69;;;12.09;100.00
9277;BME280;4676;42.678;23.244;2022-09-14T05:08:41;94086.03;;;12.16;100.00
9277;BME280;4676;42.678;23.244;2022-09-14T05:11:11;94083.16;;;12.24;100.00
9277;BME280;4676;42.678;23.244;2022-09-14T05:13:39;94087.09;;;12.29;100.00
9277;BME280;4676;42.678;23.244;2022-09-14T05:16:07;94086.59;;;12.40;100.00
9277;BME280;4676;42.678;23.244;2022-09-14T05:18:36;94095.06;;;12.58;100.00
9277;BME280;4676;42.678;23.244;2022-09-14T05:21:03;94091.34;;;12.65;100.00
9277;BME280;4676;42.678;23.244;2022-09-14T05:23:31;94097.84;;;12.70;100.00
9277;BME280;4676;42.678;23.244;2022-09-14T05:25:58;94088.75;;;12.83;100.00
9277;BME280;4676;42.678;23.244;2022-09-14T05:28:25;94093.84;;;12.83;100.00
9277;BME280;4676;42.678;23.244;2022-09-14T05:30:52;94094.41;;;12.88;100.00
9277;BME280;4676;42.678;23.244;2022-09-14T05:33:20;94098.03;;;13.01;100.00
9277;BME280;4676;42.678;23.244;2022-09-14T05:35:49;94102.81;;;13.08;100.00
9277;BME280;4676;42.678;23.244;2022-09-14T05:38:16;94097.59;;;13.11;100.00
9277;BME280;4676;42.678;23.244;2022-09-14T05:40:43;94098.09;;;13.17;100.00
9277;BME280;4676;42.678;23.244;2022-09-14T05:43:10;94097.34;;;13.32;100.00
9277;BME280;4676;42.678;23.244;2022-09-14T05:45:36;94100.34;;;13.40;100.00
9277;BME280;4676;42.678;23.244;2022-09-14T05:48:03;94106.56;;;13.68;100.00
9277;BME280;4676;42.678;23.244;2022-09-14T05:50:30;94108.94;;;13.71;100.00
9277;BME280;4676;42.678;23.244;2022-09-14T05:52:59;94102.94;;;13.72;100.00
9277;BME280;4676;42.678;23.244;2022-09-14T05:55:26;94108.56;;;13.94;100.00
9277;BME280;4676;42.678;23.244;2022-09-14T05:57:53;94113.09;;;14.20;100.00
9277;BME280;4676;42.678;23.244;2022-09-14T06:00:20;94117.47;;;14.49;100.00
9277;BME280;4676;42.678;23.244;2022-09-14T06:02:47;94118.19;;;14.67;100.00
9277;BME280;4676;42.678;23.244;2022-09-14T06:05:14;94118.72;;;14.88;100.00
9277;BME280;4676;42.678;23.244;2022-09-14T06:07:41;94122.38;;;14.84;100.00
9277;BME280;4676;42.678;23.244;2022-09-14T06:10:10;94121.75;;;14.94;100.00
9277;BME280;4676;42.678;23.244;2022-09-14T06:12:37;94112.31;;;15.11;100.00
9277;BME280;4676;42.678;23.244;2022-09-14T06:15:05;94109.78;;;15.25;100.00
9277;BME280;4676;42.678;23.244;2022-09-14T06:17:32;94106.19;;;15.43;100.00
9277;BME280;4676;42.678;23.244;2022-09-14T06:19:59;94105.22;;;15.60;100.00
9277;BME280;4676;42.678;23.244;2022-09-14T06:22:25;94105.59;;;15.68;100.00
9277;BME280;4676;42.678;23.244;2022-09-14T06:24:52;94103.84;;;15.96;100.00
9277;BME280;4676;42.678;23.244;2022-09-14T06:27:20;94096.25;;;16.09;100.00
9277;BME280;4676;42.678;23.244;2022-09-14T06:29:47;94098.88;;;16.22;100.00
9277;BME280;4676;42.678;23.244;2022-09-14T06:32:16;94089.28;;;16.25;98.68
9277;BME280;4676;42.678;23.244;2022-09-14T06:34:43;94102.47;;;16.60;92.74
9277;BME280;4676;42.678;23.244;2022-09-14T06:37:10;94103.66;;;16.81;92.61
9277;BME280;4676;42.678;23.244;2022-09-14T06:39:37;94106.94;;;16.83;91.16
9277;BME280;4676;42.678;23.244;2022-09-14T06:42:04;94098.34;;;16.97;87.99
9277;BME280;4676;42.678;23.244;2022-09-14T06:44:33;94098.28;;;17.11;89.77
9277;BME280;4676;42.678;23.244;2022-09-14T06:46:59;94098.28;;;16.98;85.04
9277;BME280;4676;42.678;23.244;2022-09-14T06:49:26;94107.69;;;17.11;86.74
9277;BME280;4676;42.678;23.244;2022-09-14T06:51:53;94112.53;;;17.03;90.75
9277;BME280;4676;42.678;23.244;2022-09-14T06:54:22;94099.88;;;16.99;81.73
9277;BME280;4676;42.678;23.244;2022-09-14T06:56:49;94117.94;;;17.11;85.25
9277;BME280;4676;42.678;23.244;2022-09-14T06:59:16;94116.41;;;16.95;85.69
9277;BME280;4676;42.678;23.244;2022-09-14T07:01:45;94120.28;;;17.01;88.50
9277;BME280;4676;42.678;23.244;2022-09-14T07:04:14;94120.84;;;17.19;89.69
9277;BME280;4676;42.678;23.244;2022-09-14T07:06:42;94123.84;;;17.38;85.58
9277;BME280;4676;42.678;23.244;2022-09-14T07:09:10;94114.81;;;17.32;83.98
9277;BME280;4676;42.678;23.244;2022-09-14T07:11:38;94106.22;;;17.33;83.34
9277;BME280;4676;42.678;23.244;2022-09-14T07:14:05;94105.50;;;17.44;85.54
9277;BME280;4676;42.678;23.244;2022-09-14T07:16:36;94103.34;;;17.38;80.93
9277;BME280;4676;42.678;23.244;2022-09-14T07:19:06;94100.88;;;17.36;82.39
9277;BME280;4676;42.678;23.244;2022-09-14T07:21:33;94107.75;;;17.36;79.47
9277;BME280;4676;42.678;23.244;2022-09-14T07:24:01;94102.91;;;17.19;84.33
9277;BME280;4676;42.678;23.244;2022-09-14T07:26:29;94093.28;;;17.10;85.97
9277;BME280;4676;42.678;23.244;2022-09-14T07:28:59;94104.66;;;17.18;82.52
9277;BME280;4676;42.678;23.244;2022-09-14T07:31:28;94100.97;;;17.22;83.12
9277;BME280;4676;42.678;23.244;2022-09-14T07:34:00;94090.44;;;17.27;84.34
9277;BME280;4676;42.678;23.244;2022-09-14T07:36:30;94079.25;;;17.28;84.10
9277;BME280;4676;42.678;23.244;2022-09-14T07:38:57;94095.47;;;17.41;81.55
9277;BME280;4676;42.678;23.244;2022-09-14T07:41:25;94101.50;;;17.40;84.80
9277;BME280;4676;42.678;23.244;2022-09-14T07:43:54;94076.50;;;17.43;82.37
9277;BME280;4676;42.678;23.244;2022-09-14T07:46:25;94102.47;;;17.64;80.98
9277;BME280;4676;42.678;23.244;2022-09-14T07:48:54;94097.09;;;17.55;82.23
9277;BME280;4676;42.678;23.244;2022-09-14T07:51:22;94100.19;;;17.60;80.76
9277;BME280;4676;42.678;23.244;2022-09-14T07:53:50;94091.88;;;17.56;81.59
9277;BME280;4676;42.678;23.244;2022-09-14T07:56:17;94092.50;;;17.60;81.72
9277;BME280;4676;42.678;23.244;2022-09-14T07:58:44;94099.38;;;17.72;80.06
9277;BME280;4676;42.678;23.244;2022-09-14T08:01:12;94103.78;;;17.70;80.65
9277;BME280;4676;42.678;23.244;2022-09-14T08:03:40;94108.72;;;17.73;82.57
9277;BME280;4676;42.678;23.244;2022-09-14T08:06:09;94108.81;;;17.71;82.04
9277;BME280;4676;42.678;23.244;2022-09-14T08:08:40;94095.06;;;17.60;80.93
9277;BME280;4676;42.678;23.244;2022-09-14T08:11:10;94101.53;;;17.90;83.15
9277;BME280;4676;42.678;23.244;2022-09-14T08:13:39;94100.31;;;17.83;81.19
9277;BME280;4676;42.678;23.244;2022-09-14T08:16:06;94104.72;;;17.94;81.01
9277;BME280;4676;42.678;23.244;2022-09-14T08:18:33;94095.97;;;17.96;80.41
9277;BME280;4676;42.678;23.244;2022-09-14T08:21:04;94099.63;;;18.05;79.73
9277;BME280;4676;42.678;23.244;2022-09-14T08:23:32;94095.84;;;18.11;79.95
9277;BME280;4676;42.678;23.244;2022-09-14T08:26:03;94090.28;;;18.17;79.24
9277;BME280;4676;42.678;23.244;2022-09-14T08:28:31;94096.38;;;18.39;76.81
9277;BME280;4676;42.678;23.244;2022-09-14T08:31:03;94102.94;;;18.56;75.48
9277;BME280;4676;42.678;23.244;2022-09-14T08:33:31;94097.34;;;18.86;76.15
9277;BME280;4676;42.678;23.244;2022-09-14T08:35:58;94092.84;;;19.01;76.22
9277;BME280;4676;42.678;23.244;2022-09-14T08:38:24;94099.81;;;19.22;75.59
9277;BME280;4676;42.678;23.244;2022-09-14T08:40:52;94075.44;;;19.39;73.02
9277;BME280;4676;42.678;23.244;2022-09-14T08:43:20;94087.56;;;19.83;73.18
9277;BME280;4676;42.678;23.244;2022-09-14T08:45:53;94087.56;;;20.05;72.47
9277;BME280;4676;42.678;23.244;2022-09-14T08:48:26;94086.84;;;20.14;65.01
9277;BME280;4676;42.678;23.244;2022-09-14T08:50:56;94087.09;;;20.11;67.89
9277;BME280;4676;42.678;23.244;2022-09-14T08:53:23;94085.78;;;20.17;67.79
9277;BME280;4676;42.678;23.244;2022-09-14T08:55:53;94084.38;;;20.24;69.67
9277;BME280;4676;42.678;23.244;2022-09-14T08:58:31;94072.91;;;20.17;67.36
9277;BME280;4676;42.678;23.244;2022-09-14T09:01:07;94084.13;;;20.27;67.12
9277;BME280;4676;42.678;23.244;2022-09-14T09:03:48;94077.84;;;20.42;67.15
9277;BME280;4676;42.678;23.244;2022-09-14T09:06:18;94054.31;;;20.47;64.34
9277;BME280;4676;42.678;23.244;2022-09-14T09:08:55;94075.56;;;20.60;65.81
9277;BME280;4676;42.678;23.244;2022-09-14T09:11:26;94076.97;;;20.64;69.33
9277;BME280;4676;42.678;23.244;2022-09-14T09:13:56;94073.63;;;20.84;67.64
9277;BME280;4676;42.678;23.244;2022-09-14T09:16:26;94072.50;;;20.98;64.21
9277;BME280;4676;42.678;23.244;2022-09-14T09:18:57;94076.69;;;21.10;62.70
9277;BME280;4676;42.678;23.244;2022-09-14T09:21:27;94070.22;;;21.15;63.40
9277;BME280;4676;42.678;23.244;2022-09-14T09:23:57;94036.50;;;21.07;65.45
9277;BME280;4676;42.678;23.244;2022-09-14T09:26:31;94068.72;;;21.33;64.27
9277;BME280;4676;42.678;23.244;2022-09-14T09:29:00;94066.34;;;21.41;67.33
9277;BME280;4676;42.678;23.244;2022-09-14T09:31:32;94075.78;;;21.52;65.82
9277;BME280;4676;42.678;23.244;2022-09-14T09:34:00;94052.69;;;21.51;67.04
9277;BME280;4676;42.678;23.244;2022-09-14T09:36:33;94069.66;;;21.74;61.29
9277;BME280;4676;42.678;23.244;2022-09-14T09:39:02;94062.81;;;21.63;59.81
9277;BME280;4676;42.678;23.244;2022-09-14T09:41:30;94065.66;;;21.60;60.92
9277;BME280;4676;42.678;23.244;2022-09-14T09:44:03;94058.97;;;21.58;63.27
9277;BME280;4676;42.678;23.244;2022-09-14T09:46:33;94056.94;;;21.61;60.81
9277;BME280;4676;42.678;23.244;2022-09-14T09:49:02;94056.19;;;21.70;60.63
9277;BME280;4676;42.678;23.244;2022-09-14T09:51:32;94056.06;;;21.81;59.92
9277;BME280;4676;42.678;23.244;2022-09-14T09:54:05;94042.75;;;21.76;60.61
9277;BME280;4676;42.678;23.244;2022-09-14T09:56:35;94062.47;;;22.08;59.78
9277;BME280;4676;42.678;23.244;2022-09-14T09:59:21;94051.06;;;22.10;54.99
9277;BME280;4676;42.678;23.244;2022-09-14T10:01:52;94053.00;;;22.18;54.70
9277;BME280;4676;42.678;23.244;2022-09-14T10:04:21;94048.81;;;22.26;54.60
9277;BME280;4676;42.678;23.244;2022-09-14T10:06:50;94043.13;;;22.42;50.53
9277;BME280;4676;42.678;23.244;2022-09-14T10:09:18;94039.75;;;22.61;51.29
9277;BME280;4676;42.678;23.244;2022-09-14T10:11:46;94010.94;;;22.65;52.90
9277;BME280;4676;42.678;23.244;2022-09-14T10:14:23;94028.53;;;23.00;50.33
9277;BME280;4676;42.678;23.244;2022-09-14T10:16:53;94023.47;;;23.18;46.54
9277;BME280;4676;42.678;23.244;2022-09-14T10:19:30;94027.13;;;23.34;48.67
9277;BME280;4676;42.678;23.244;2022-09-14T10:22:14;94021.41;;;23.50;45.92
9277;BME280;4676;42.678;23.244;2022-09-14T10:24:51;94020.69;;;23.58;46.57
9277;BME280;4676;42.678;23.244;2022-09-14T10:27:40;94013.47;;;23.52;46.56
9277;BME280;4676;42.678;23.244;2022-09-14T10:30:16;94023.25;;;23.67;45.58
9277;BME280;4676;42.678;23.244;2022-09-14T10:32:51;94026.19;;;23.82;44.01
9277;BME280;4676;42.678;23.244;2022-09-14T10:35:19;94021.97;;;23.81;40.05
9277;BME280;4676;42.678;23.244;2022-09-14T10:37:56;94027.41;;;23.87;37.82
9277;BME280;4676;42.678;23.244;2022-09-14T10:40:32;94025.19;;;23.93;38.45
9277;BME280;4676;42.678;23.244;2022-09-14T10:43:08;94021.13;;;23.90;44.84
9277;BME280;4676;42.678;23.244;2022-09-14T10:45:39;94018.75;;;23.97;44.59
9277;BME280;4676;42.678;23.244;2022-09-14T10:48:24;94026.31;;;24.17;41.41
9277;BME280;4676;42.678;23.244;2022-09-14T10:51:00;94007.94;;;24.11;44.65
9277;BME280;4676;42.678;23.244;2022-09-14T10:53:38;94006.66;;;24.24;42.18
9277;BME280;4676;42.678;23.244;2022-09-14T10:56:10;93987.88;;;24.22;42.23
9277;BME280;4676;42.678;23.244;2022-09-14T10:59:04;94002.31;;;24.43;42.80
9277;BME280;4676;42.678;23.244;2022-09-14T11:01:50;94017.38;;;24.57;38.81
9277;BME280;4676;42.678;23.244;2022-09-14T11:04:35;94006.69;;;24.60;41.10
9277;BME280;4676;42.678;23.244;2022-09-14T11:07:12;94012.88;;;24.59;42.71
9277;BME280;4676;42.678;23.244;2022-09-14T11:09:47;94011.38;;;24.56;42.08
9277;BME280;4676;42.678;23.244;2022-09-14T11:12:22;94004.63;;;24.63;44.20
9277;BME280;4676;42.678;23.244;2022-09-14T11:15:01;94021.91;;;24.72;38.60
9277;BME280;4676;42.678;23.244;2022-09-14T11:17:45;94009.38;;;24.68;37.05
9277;BME280;4676;42.678;23.244;2022-09-14T11:20:25;94016.72;;;24.72;42.42
9277;BME280;4676;42.678;23.244;2022-09-14T11:23:03;94009.59;;;24.74;37.95
9277;BME280;4676;42.678;23.244;2022-09-14T11:25:42;94010.13;;;24.78;39.59
9277;BME280;4676;42.678;23.244;2022-09-14T11:28:15;94003.75;;;24.72;42.27
9277;BME280;4676;42.678;23.244;2022-09-14T11:30:46;93989.03;;;24.73;40.09
9277;BME280;4676;42.678;23.244;2022-09-14T11:33:19;93992.81;;;24.96;38.44
9277;BME280;4676;42.678;23.244;2022-09-14T11:35:51;93999.53;;;25.07;37.62
9277;BME280;4676;42.678;23.244;2022-09-14T11:38:24;93985.13;;;25.12;40.95
9277;BME280;4676;42.678;23.244;2022-09-14T11:40:56;93970.56;;;25.11;39.16
9277;BME280;4676;42.678;23.244;2022-09-14T11:43:28;93977.53;;;25.11;38.70
9277;BME280;4676;42.678;23.244;2022-09-14T11:46:03;93980.13;;;25.11;38.00
9277;BME280;4676;42.678;23.244;2022-09-14T11:48:35;93985.31;;;25.11;38.93
9277;BME280;4676;42.678;23.244;2022-09-14T11:51:11;93980.72;;;25.05;39.91
9277;BME280;4676;42.678;23.244;2022-09-14T11:53:41;93982.50;;;25.04;39.17
9277;BME280;4676;42.678;23.244;2022-09-14T11:56:19;93979.31;;;25.10;40.78
9277;BME280;4676;42.678;23.244;2022-09-14T11:58:49;93937.22;;;24.99;39.87
9277;BME280;4676;42.678;23.244;2022-09-14T12:01:28;93982.75;;;25.37;39.46
9277;BME280;4676;42.678;23.244;2022-09-14T12:04:16;93977.56;;;25.37;35.63
9277;BME280;4676;42.678;23.244;2022-09-14T12:06:47;93982.00;;;25.26;38.12
9277;BME280;4676;42.678;23.244;2022-09-14T12:09:42;93979.34;;;25.44;37.29
9277;BME280;4676;42.678;23.244;2022-09-14T12:12:30;93973.53;;;25.42;38.77
9277;BME280;4676;42.678;23.244;2022-09-14T12:14:59;93975.81;;;25.45;40.44
9277;BME280;4676;42.678;23.244;2022-09-14T12:17:31;93972.56;;;25.43;41.97
9277;BME280;4676;42.678;23.244;2022-09-14T12:20:22;93981.41;;;25.58;39.10
9277;BME280;4676;42.678;23.244;2022-09-14T12:23:03;93981.00;;;25.71;38.12
9277;BME280;4676;42.678;23.244;2022-09-14T12:25:33;93974.69;;;25.73;40.28
9277;BME280;4676;42.678;23.244;2022-09-14T12:28:00;93976.19;;;25.84;39.44
9277;BME280;4676;42.678;23.244;2022-09-14T12:31:07;93974.97;;;25.96;40.03
9277;BME280;4676;42.678;23.244;2022-09-14T12:37:00;93961.16;;;26.04;39.79
9277;BME280;4676;42.678;23.244;2022-09-14T12:39:30;93965.25;;;26.06;39.22
9277;BME280;4676;42.678;23.244;2022-09-14T12:42:00;93964.09;;;26.01;37.96
9277;BME280;4676;42.678;23.244;2022-09-14T12:44:29;93961.63;;;25.91;41.50
9277;BME280;4676;42.678;23.244;2022-09-14T12:46:57;93963.41;;;25.91;41.40
9277;BME280;4676;42.678;23.244;2022-09-14T12:49:29;93960.81;;;25.91;40.22
9277;BME280;4676;42.678;23.244;2022-09-14T12:52:02;93965.72;;;26.02;41.95
9277;BME280;4676;42.678;23.244;2022-09-14T12:54:41;93968.69;;;26.15;40.37
9277;BME280;4676;42.678;23.244;2022-09-14T12:57:21;93969.50;;;26.15;41.53
9277;BME280;4676;42.678;23.244;2022-09-14T12:59:55;93947.22;;;26.05;41.43
9277;BME280;4676;42.678;23.244;2022-09-14T13:05:33;93968.88;;;26.21;42.63
9277;BME280;4676;42.678;23.244;2022-09-14T13:08:00;93966.28;;;26.21;42.41
9277;BME280;4676;42.678;23.244;2022-09-14T13:10:37;93967.28;;;26.28;41.06
9277;BME280;4676;42.678;23.244;2022-09-14T13:13:14;93973.47;;;26.27;40.34
9277;BME280;4676;42.678;23.244;2022-09-14T13:15:50;93984.88;;;26.35;40.49
9277;BME280;4676;42.678;23.244;2022-09-14T13:18:30;93973.28;;;26.29;41.85
9277;BME280;4676;42.678;23.244;2022-09-14T13:20:58;93958.66;;;26.20;41.76
9277;BME280;4676;42.678;23.244;2022-09-14T13:23:28;93962.09;;;26.20;42.20
9277;BME280;4676;42.678;23.244;2022-09-14T13:25:57;93975.78;;;26.39;42.30
9277;BME280;4676;42.678;23.244;2022-09-14T13:28:27;93972.38;;;26.38;41.32
9277;BME280;4676;42.678;23.244;2022-09-14T13:30:57;93965.56;;;26.45;41.76